To NAV CANADA Home Page Login to a new session Search on AWWS site Feedback and Comments Disclaimer Vers la page française équivalente Tips FAQ What's new on the site To the Forecasts and Observations / NOTAM section To "File a Flight Plan" website Publications and other links Update of the User's profile FIC Telephone Numbers My Weather Data Folder Route Weather Data Regional Weather Data Local Weather Data To the Forecasts and Observations / NOTAM section
Request Generated 01/21/2017 at 02:02:29 UTC . Weather information available at that time is displayed.

METAR/TAF

PRINCE ALBERT (GLASS FIELD)/SK    

METAR CYPA 210100Z 31002KT 15SM BKN110 M02/M03 A2934 RMK AC7 SLP961=
METAR CYPA 210000Z 32003KT 15SM BKN110 M00/M02 A2933 RMK AC7 SLP958=
METAR CYPA 202300Z 33004KT 15SM BKN110 BKN220 00/M02 A2932 RMK AC6CI1
SLP953=

TAF CYPA 210038Z 2101/2113 32005KT P6SM BKN110
FM210500 01008KT P6SM SCT006 TEMPO 2105/2109 4SM BR OVC003
FM210900 35006KT 2SM BR OVC003 TEMPO 2109/2113 5SM -SN BR OVC006
RMK NXT FCST BY 210700Z=
Your time UTC time
Weather data provided by Environment Canada and NAV CANADA